sensor_id;sensor_type;location;lat;lon;timestamp;pressure;altitude;pressure_sealevel;temperature;humidity
64853;BME280;56050;55.558;-4.644;2024-01-15T00:00:20;101283.13;;;3.84;63.14
64853;BME280;56050;55.558;-4.644;2024-01-15T00:02:45;101286.56;;;3.84;63.06
64853;BME280;56050;55.558;-4.644;2024-01-15T00:05:10;101289.56;;;3.83;63.02
64853;BME280;56050;55.558;-4.644;2024-01-15T00:07:36;101282.34;;;3.83;62.54
64853;BME280;56050;55.558;-4.644;2024-01-15T00:10:02;101297.13;;;3.81;62.62
64853;BME280;56050;55.558;-4.644;2024-01-15T00:12:27;101275.16;;;3.84;62.57
64853;BME280;56050;55.558;-4.644;2024-01-15T00:14:53;101264.00;;;3.82;62.44
64853;BME280;56050;55.558;-4.644;2024-01-15T00:17:19;101250.91;;;3.77;62.63
64853;BME280;56050;55.558;-4.644;2024-01-15T00:19:44;101253.56;;;3.77;62.86
64853;BME280;56050;55.558;-4.644;2024-01-15T00:22:09;101261.09;;;3.75;63.00
64853;BME280;56050;55.558;-4.644;2024-01-15T00:24:35;101246.56;;;3.72;62.46
64853;BME280;56050;55.558;-4.644;2024-01-15T00:27:00;101259.09;;;3.72;62.59
64853;BME280;56050;55.558;-4.644;2024-01-15T00:29:26;101247.66;;;3.71;62.35
64853;BME280;56050;55.558;-4.644;2024-01-15T00:31:51;101255.66;;;3.71;62.15
64853;BME280;56050;55.558;-4.644;2024-01-15T00:34:17;101260.78;;;3.76;62.13
64853;BME280;56050;55.558;-4.644;2024-01-15T00:36:42;101280.53;;;3.75;61.81
64853;BME280;56050;55.558;-4.644;2024-01-15T00:39:08;101277.09;;;3.75;61.72
64853;BME280;56050;55.558;-4.644;2024-01-15T00:41:36;101269.09;;;3.75;61.19
64853;BME280;56050;55.558;-4.644;2024-01-15T00:44:01;101279.31;;;3.73;61.38
64853;BME280;56050;55.558;-4.644;2024-01-15T00:46:28;101270.84;;;3.71;61.61
64853;BME280;56050;55.558;-4.644;2024-01-15T00:48:54;101267.72;;;3.69;61.27
64853;BME280;56050;55.558;-4.644;2024-01-15T00:51:19;101267.28;;;3.67;61.33
64853;BME280;56050;55.558;-4.644;2024-01-15T00:53:44;101251.63;;;3.65;61.49
64853;BME280;56050;55.558;-4.644;2024-01-15T00:56:10;101267.59;;;3.65;61.45
64853;BME280;56050;55.558;-4.644;2024-01-15T00:58:36;101248.16;;;3.65;61.08
64853;BME280;56050;55.558;-4.644;2024-01-15T01:01:02;101258.81;;;3.65;61.52
64853;BME280;56050;55.558;-4.644;2024-01-15T01:03:27;101264.50;;;3.63;61.06
64853;BME280;56050;55.558;-4.644;2024-01-15T01:05:53;101257.28;;;3.64;61.25
64853;BME280;56050;55.558;-4.644;2024-01-15T01:08:18;101273.25;;;3.64;61.48
64853;BME280;56050;55.558;-4.644;2024-01-15T01:10:44;101255.72;;;3.63;61.19
64853;BME280;56050;55.558;-4.644;2024-01-15T01:13:09;101262.59;;;3.64;61.33
64853;BME280;56050;55.558;-4.644;2024-01-15T01:15:35;101261.97;;;3.67;61.64
64853;BME280;56050;55.558;-4.644;2024-01-15T01:18:00;101269.97;;;3.67;61.66
64853;BME280;56050;55.558;-4.644;2024-01-15T01:20:26;101264.63;;;3.67;61.28
64853;BME280;56050;55.558;-4.644;2024-01-15T01:22:51;101255.84;;;3.66;61.25
64853;BME280;56050;55.558;-4.644;2024-01-15T01:25:16;101265.41;;;3.67;60.94
64853;BME280;56050;55.558;-4.644;2024-01-15T01:27:42;101260.72;;;3.64;61.15
64853;BME280;56050;55.558;-4.644;2024-01-15T01:30:08;101273.72;;;3.66;60.86
64853;BME280;56050;55.558;-4.644;2024-01-15T01:32:34;101277.47;;;3.65;60.88
64853;BME280;56050;55.558;-4.644;2024-01-15T01:34:59;101277.81;;;3.63;60.63
64853;BME280;56050;55.558;-4.644;2024-01-15T01:37:25;101278.78;;;3.59;60.51
64853;BME280;56050;55.558;-4.644;2024-01-15T01:39:50;101276.00;;;3.55;60.41
64853;BME280;56050;55.558;-4.644;2024-01-15T01:42:15;101273.53;;;3.50;60.38
64853;BME280;56050;55.558;-4.644;2024-01-15T01:44:41;101272.94;;;3.44;60.04
64853;BME280;56050;55.558;-4.644;2024-01-15T01:47:07;101275.00;;;3.39;60.19
64853;BME280;56050;55.558;-4.644;2024-01-15T01:49:33;101276.44;;;3.36;60.18
64853;BME280;56050;55.558;-4.644;2024-01-15T01:52:01;101263.31;;;3.31;60.17
64853;BME280;56050;55.558;-4.644;2024-01-15T01:54:29;101268.81;;;3.26;60.18
64853;BME280;56050;55.558;-4.644;2024-01-15T01:56:57;101270.59;;;3.22;60.25
64853;BME280;56050;55.558;-4.644;2024-01-15T01:59:24;101265.91;;;3.19;60.47
64853;BME280;56050;55.558;-4.644;2024-01-15T02:01:51;101277.19;;;3.16;60.49
64853;BME280;56050;55.558;-4.644;2024-01-15T02:04:17;101277.84;;;3.13;60.37
64853;BME280;56050;55.558;-4.644;2024-01-15T02:06:43;101276.94;;;3.09;60.59
64853;BME280;56050;55.558;-4.644;2024-01-15T02:09:09;101284.44;;;3.07;60.74
64853;BME280;56050;55.558;-4.644;2024-01-15T02:11:36;101281.66;;;3.04;61.04
64853;BME280;56050;55.558;-4.644;2024-01-15T02:14:02;101274.75;;;3.03;60.88
64853;BME280;56050;55.558;-4.644;2024-01-15T02:16:28;101276.97;;;3.01;61.35
64853;BME280;56050;55.558;-4.644;2024-01-15T02:18:54;101273.53;;;3.00;61.36
64853;BME280;56050;55.558;-4.644;2024-01-15T02:21:19;101271.19;;;2.98;61.32
64853;BME280;56050;55.558;-4.644;2024-01-15T02:23:45;101274.31;;;3.01;61.43
64853;BME280;56050;55.558;-4.644;2024-01-15T02:26:10;101268.22;;;3.00;61.56
64853;BME280;56050;55.558;-4.644;2024-01-15T02:28:36;101276.50;;;2.98;61.64
64853;BME280;56050;55.558;-4.644;2024-01-15T02:31:02;101272.75;;;3.00;61.44
64853;BME280;56050;55.558;-4.644;2024-01-15T02:33:27;101281.97;;;3.02;61.40
64853;BME280;56050;55.558;-4.644;2024-01-15T02:35:52;101271.31;;;3.02;61.21
64853;BME280;56050;55.558;-4.644;2024-01-15T02:38:18;101280.88;;;3.03;61.13
64853;BME280;56050;55.558;-4.644;2024-01-15T02:40:45;101274.75;;;3.03;61.01
64853;BME280;56050;55.558;-4.644;2024-01-15T02:43:11;101271.78;;;3.04;61.28
64853;BME280;56050;55.558;-4.644;2024-01-15T02:45:37;101276.00;;;3.05;61.10
64853;BME280;56050;55.558;-4.644;2024-01-15T02:48:02;101273.34;;;3.05;61.00
64853;BME280;56050;55.558;-4.644;2024-01-15T02:50:28;101271.78;;;3.04;60.87
64853;BME280;56050;55.558;-4.644;2024-01-15T02:52:53;101282.91;;;3.06;60.81
64853;BME280;56050;55.558;-4.644;2024-01-15T02:55:19;101283.66;;;3.07;60.83
64853;BME280;56050;55.558;-4.644;2024-01-15T02:57:45;101277.09;;;3.04;60.98
64853;BME280;56050;55.558;-4.644;2024-01-15T03:00:10;101277.09;;;3.04;61.01
64853;BME280;56050;55.558;-4.644;2024-01-15T03:02:37;101276.44;;;3.07;60.73
64853;BME280;56050;55.558;-4.644;2024-01-15T03:05:06;101271.59;;;3.09;60.59
64853;BME280;56050;55.558;-4.644;2024-01-15T03:07:32;101278.91;;;3.12;60.41
64853;BME280;56050;55.558;-4.644;2024-01-15T03:09:57;101278.91;;;3.12;60.02
64853;BME280;56050;55.558;-4.644;2024-01-15T03:12:23;101276.75;;;3.14;60.15
64853;BME280;56050;55.558;-4.644;2024-01-15T03:14:48;101285.19;;;3.16;59.55
64853;BME280;56050;55.558;-4.644;2024-01-15T03:17:13;101284.72;;;3.14;59.64
64853;BME280;56050;55.558;-4.644;2024-01-15T03:19:39;101285.81;;;3.13;59.48
64853;BME280;56050;55.558;-4.644;2024-01-15T03:22:04;101276.44;;;3.07;59.22
64853;BME280;56050;55.558;-4.644;2024-01-15T03:24:31;101272.56;;;3.05;59.51
64853;BME280;56050;55.558;-4.644;2024-01-15T03:26:57;101278.22;;;3.03;59.38
64853;BME280;56050;55.558;-4.644;2024-01-15T03:29:23;101274.63;;;2.99;59.39
64853;BME280;56050;55.558;-4.644;2024-01-15T03:31:48;101279.78;;;2.95;58.96
64853;BME280;56050;55.558;-4.644;2024-01-15T03:34:13;101281.09;;;2.89;59.29
64853;BME280;56050;55.558;-4.644;2024-01-15T03:36:39;101282.03;;;2.85;59.33
64853;BME280;56050;55.558;-4.644;2024-01-15T03:39:05;101290.22;;;2.80;59.16
64853;BME280;56050;55.558;-4.644;2024-01-15T03:41:31;101287.72;;;2.75;59.24
64853;BME280;56050;55.558;-4.644;2024-01-15T03:43:56;101294.31;;;2.69;59.57
64853;BME280;56050;55.558;-4.644;2024-01-15T03:46:23;101290.75;;;2.65;59.51
64853;BME280;56050;55.558;-4.644;2024-01-15T03:48:49;101291.38;;;2.62;59.39
64853;BME280;56050;55.558;-4.644;2024-01-15T03:51:16;101287.00;;;2.57;59.57
64853;BME280;56050;55.558;-4.644;2024-01-15T03:53:42;101285.31;;;2.53;59.60
64853;BME280;56050;55.558;-4.644;2024-01-15T03:56:07;101286.28;;;2.48;59.70
64853;BME280;56050;55.558;-4.644;2024-01-15T03:58:33;101289.22;;;2.47;59.84
64853;BME280;56050;55.558;-4.644;2024-01-15T04:00:58;101293.00;;;2.46;59.80
64853;BME280;56050;55.558;-4.644;2024-01-15T04:03:24;101283.00;;;2.43;59.88
64853;BME280;56050;55.558;-4.644;2024-01-15T04:05:49;101286.41;;;2.43;60.14
64853;BME280;56050;55.558;-4.644;2024-01-15T04:08:15;101289.06;;;2.43;60.08
64853;BME280;56050;55.558;-4.644;2024-01-15T04:10:40;101296.28;;;2.43;59.85
64853;BME280;56050;55.558;-4.644;2024-01-15T04:13:06;101285.66;;;2.43;59.80
64853;BME280;56050;55.558;-4.644;2024-01-15T04:15:31;101290.19;;;2.42;59.87
64853;BME280;56050;55.558;-4.644;2024-01-15T04:17:56;101289.72;;;2.40;59.94
64853;BME280;56050;55.558;-4.644;2024-01-15T04:20:22;101287.84;;;2.41;59.85
64853;BME280;56050;55.558;-4.644;2024-01-15T04:22:47;101301.13;;;2.41;60.04
64853;BME280;56050;55.558;-4.644;2024-01-15T04:25:13;101293.94;;;2.41;59.95
64853;BME280;56050;55.558;-4.644;2024-01-15T04:27:38;101290.19;;;2.42;59.92
64853;BME280;56050;55.558;-4.644;2024-01-15T04:30:04;101293.63;;;2.43;60.08
64853;BME280;56050;55.558;-4.644;2024-01-15T04:32:30;101295.97;;;2.44;60.06
64853;BME280;56050;55.558;-4.644;2024-01-15T04:34:55;101293.31;;;2.44;59.72
64853;BME280;56050;55.558;-4.644;2024-01-15T04:37:21;101287.69;;;2.46;59.99
64853;BME280;56050;55.558;-4.644;2024-01-15T04:39:46;101291.09;;;2.46;60.03
64853;BME280;56050;55.558;-4.644;2024-01-15T04:42:12;101296.41;;;2.46;59.85
64853;BME280;56050;55.558;-4.644;2024-01-15T04:44:37;101299.06;;;2.46;59.85
64853;BME280;56050;55.558;-4.644;2024-01-15T04:47:03;101292.22;;;2.45;59.93
64853;BME280;56050;55.558;-4.644;2024-01-15T04:49:29;101295.97;;;2.44;60.06
64853;BME280;56050;55.558;-4.644;2024-01-15T04:51:55;101295.19;;;2.44;59.88
64853;BME280;56050;55.558;-4.644;2024-01-15T04:54:20;101296.28;;;2.43;60.16
64853;BME280;56050;55.558;-4.644;2024-01-15T04:56:46;101297.38;;;2.42;60.12
64853;BME280;56050;55.558;-4.644;2024-01-15T04:59:13;101301.59;;;2.43;59.97
64853;BME280;56050;55.558;-4.644;2024-01-15T05:01:39;101289.06;;;2.43;59.86
64853;BME280;56050;55.558;-4.644;2024-01-15T05:04:05;101274.69;;;2.44;59.88
64853;BME280;56050;55.558;-4.644;2024-01-15T05:06:30;101285.03;;;2.46;59.72
64853;BME280;56050;55.558;-4.644;2024-01-15T05:08:56;101285.31;;;2.44;59.72
64853;BME280;56050;55.558;-4.644;2024-01-15T05:11:22;101292.50;;;2.44;59.87
64853;BME280;56050;55.558;-4.644;2024-01-15T05:13:47;101289.56;;;2.45;59.91
64853;BME280;56050;55.558;-4.644;2024-01-15T05:16:13;101287.19;;;2.44;59.91
64853;BME280;56050;55.558;-4.644;2024-01-15T05:18:39;101294.38;;;2.43;59.87
64853;BME280;56050;55.558;-4.644;2024-01-15T05:21:04;101293.94;;;2.41;60.07
64853;BME280;56050;55.558;-4.644;2024-01-15T05:23:31;101288.94;;;2.40;60.24
64853;BME280;56050;55.558;-4.644;2024-01-15T05:25:57;101290.03;;;2.38;60.20
64853;BME280;56050;55.558;-4.644;2024-01-15T05:28:22;101282.84;;;2.39;60.25
64853;BME280;56050;55.558;-4.644;2024-01-15T05:30:48;101290.50;;;2.41;60.43
64853;BME280;56050;55.558;-4.644;2024-01-15T05:33:16;101287.84;;;2.41;60.64
64853;BME280;56050;55.558;-4.644;2024-01-15T05:35:41;101291.28;;;2.41;60.61
64853;BME280;56050;55.558;-4.644;2024-01-15T05:38:06;101295.81;;;2.41;60.45
64853;BME280;56050;55.558;-4.644;2024-01-15T05:40:32;101298.00;;;2.38;60.56
64853;BME280;56050;55.558;-4.644;2024-01-15T05:42:57;101291.91;;;2.38;60.30
64853;BME280;56050;55.558;-4.644;2024-01-15T05:45:23;101288.47;;;2.37;60.44
64853;BME280;56050;55.558;-4.644;2024-01-15T05:47:48;101289.56;;;2.36;60.27
64853;BME280;56050;55.558;-4.644;2024-01-15T05:50:14;101286.91;;;2.36;60.26
64853;BME280;56050;55.558;-4.644;2024-01-15T05:52:40;101291.44;;;2.36;60.08
64853;BME280;56050;55.558;-4.644;2024-01-15T05:55:05;101291.00;;;2.34;59.86
64853;BME280;56050;55.558;-4.644;2024-01-15T05:57:31;101283.94;;;2.29;60.08
64853;BME280;56050;55.558;-4.644;2024-01-15T05:59:56;101283.03;;;2.25;60.21
64853;BME280;56050;55.558;-4.644;2024-01-15T06:02:22;101279.91;;;2.23;60.19
64853;BME280;56050;55.558;-4.644;2024-01-15T06:04:47;101287.91;;;2.23;60.17
64853;BME280;56050;55.558;-4.644;2024-01-15T06:07:13;101283.66;;;2.22;60.20
64853;BME280;56050;55.558;-4.644;2024-01-15T06:09:38;101283.22;;;2.20;60.13
64853;BME280;56050;55.558;-4.644;2024-01-15T06:12:05;101286.16;;;2.19;60.20
64853;BME280;56050;55.558;-4.644;2024-01-15T06:14:30;101281.19;;;2.17;60.28
64853;BME280;56050;55.558;-4.644;2024-01-15T06:16:56;101290.22;;;2.16;60.32
64853;BME280;56050;55.558;-4.644;2024-01-15T06:19:21;101297.75;;;2.14;60.10
64853;BME280;56050;55.558;-4.644;2024-01-15T06:21:47;101287.75;;;2.11;60.26
64853;BME280;56050;55.558;-4.644;2024-01-15T06:24:12;101295.25;;;2.09;60.19
64853;BME280;56050;55.558;-4.644;2024-01-15T06:26:39;101302.28;;;2.05;60.23
64853;BME280;56050;55.558;-4.644;2024-01-15T06:29:04;101296.34;;;2.00;60.17
64853;BME280;56050;55.558;-4.644;2024-01-15T06:31:30;101301.38;;;1.93;60.20
64853;BME280;56050;55.558;-4.644;2024-01-15T06:33:55;101301.81;;;1.86;60.50
64853;BME280;56050;55.558;-4.644;2024-01-15T06:36:21;101300.91;;;1.82;60.63
64853;BME280;56050;55.558;-4.644;2024-01-15T06:38:46;101308.25;;;1.76;60.77
64853;BME280;56050;55.558;-4.644;2024-01-15T06:41:12;101310.75;;;1.73;60.77
64853;BME280;56050;55.558;-4.644;2024-01-15T06:43:38;101313.69;;;1.71;61.07
64853;BME280;56050;55.558;-4.644;2024-01-15T06:46:03;101314.00;;;1.70;61.00
64853;BME280;56050;55.558;-4.644;2024-01-15T06:48:29;101309.50;;;1.70;61.03
64853;BME280;56050;55.558;-4.644;2024-01-15T06:50:54;101315.59;;;1.71;60.84
64853;BME280;56050;55.558;-4.644;2024-01-15T06:53:20;101314.47;;;1.72;60.99
64853;BME280;56050;55.558;-4.644;2024-01-15T06:55:46;101313.84;;;1.75;60.95
64853;BME280;56050;55.558;-4.644;2024-01-15T06:58:11;101313.56;;;1.76;60.86
64853;BME280;56050;55.558;-4.644;2024-01-15T07:00:37;101312.78;;;1.76;60.91
64853;BME280;56050;55.558;-4.644;2024-01-15T07:03:03;101302.44;;;1.74;60.92
64853;BME280;56050;55.558;-4.644;2024-01-15T07:05:28;101306.22;;;1.73;60.84
64853;BME280;56050;55.558;-4.644;2024-01-15T07:07:55;101317.91;;;1.72;61.10
64853;BME280;56050;55.558;-4.644;2024-01-15T07:10:21;101312.44;;;1.69;60.94
64853;BME280;56050;55.558;-4.644;2024-01-15T07:12:46;101310.13;;;1.67;61.19
64853;BME280;56050;55.558;-4.644;2024-01-15T07:15:12;101313.84;;;1.66;60.91
64853;BME280;56050;55.558;-4.644;2024-01-15T07:17:37;101325.88;;;1.64;61.00
64853;BME280;56050;55.558;-4.644;2024-01-15T07:20:07;101320.09;;;1.62;61.10
64853;BME280;56050;55.558;-4.644;2024-01-15T07:22:35;101323.38;;;1.59;61.33
64853;BME280;56050;55.558;-4.644;2024-01-15T07:25:01;101323.69;;;1.57;61.48
64853;BME280;56050;55.558;-4.644;2024-01-15T07:27:27;101318.69;;;1.56;61.58
64853;BME280;56050;55.558;-4.644;2024-01-15T07:29:53;101319.47;;;1.56;62.45
64853;BME280;56050;55.558;-4.644;2024-01-15T07:32:19;101324.16;;;1.59;62.72
64853;BME280;56050;55.558;-4.644;2024-01-15T07:34:45;101330.09;;;1.65;62.91
64853;BME280;56050;55.558;-4.644;2024-01-15T07:37:11;101329.63;;;1.71;62.89
64853;BME280;56050;55.558;-4.644;2024-01-15T07:39:36;101340.75;;;1.73;62.99
64853;BME280;56050;55.558;-4.644;2024-01-15T07:42:02;101330.56;;;1.75;62.80
64853;BME280;56050;55.558;-4.644;2024-01-15T07:44:28;101338.72;;;1.79;62.88
64853;BME280;56050;55.558;-4.644;2024-01-15T07:46:53;101334.94;;;1.80;62.87
64853;BME280;56050;55.558;-4.644;2024-01-15T07:49:19;101333.06;;;1.81;62.90
64853;BME280;56050;55.558;-4.644;2024-01-15T07:51:44;101333.53;;;1.83;62.66
64853;BME280;56050;55.558;-4.644;2024-01-15T07:54:10;101335.44;;;1.82;62.69
64853;BME280;56050;55.558;-4.644;2024-01-15T07:56:59;101333.06;;;1.81;62.62
64853;BME280;56050;55.558;-4.644;2024-01-15T07:59:25;101337.59;;;1.80;62.67
64853;BME280;56050;55.558;-4.644;2024-01-15T08:01:51;101334.47;;;1.78;62.65
64853;BME280;56050;55.558;-4.644;2024-01-15T08:04:17;101331.38;;;1.76;62.58
64853;BME280;56050;55.558;-4.644;2024-01-15T08:06:42;101329.00;;;1.74;62.47
64853;BME280;56050;55.558;-4.644;2024-01-15T08:09:08;101322.91;;;1.74;62.44
64853;BME280;56050;55.558;-4.644;2024-01-15T08:11:39;101321.66;;;1.71;62.32
64853;BME280;56050;55.558;-4.644;2024-01-15T08:14:04;101327.91;;;1.67;62.55
64853;BME280;56050;55.558;-4.644;2024-01-15T08:16:30;101336.19;;;1.65;62.34
64853;BME280;56050;55.558;-4.644;2024-01-15T08:18:56;101327.44;;;1.65;62.07
64853;BME280;56050;55.558;-4.644;2024-01-15T08:21:22;101329.16;;;1.61;62.21
64853;BME280;56050;55.558;-4.644;2024-01-15T08:23:47;101340.38;;;1.58;62.10
64853;BME280;56050;55.558;-4.644;2024-01-15T08:26:13;101346.81;;;1.57;62.21
64853;BME280;56050;55.558;-4.644;2024-01-15T08:28:38;101353.66;;;1.58;62.02
64853;BME280;56050;55.558;-4.644;2024-01-15T08:31:04;101360.38;;;1.55;62.16
64853;BME280;56050;55.558;-4.644;2024-01-15T08:33:29;101363.81;;;1.56;62.11
64853;BME280;56050;55.558;-4.644;2024-01-15T08:35:55;101359.59;;;1.55;62.04
64853;BME280;56050;55.558;-4.644;2024-01-15T08:38:20;101361.16;;;1.56;62.20
64853;BME280;56050;55.558;-4.644;2024-01-15T08:40:46;101357.72;;;1.55;62.12
64853;BME280;56050;55.558;-4.644;2024-01-15T08:43:11;101369.13;;;1.56;61.96
64853;BME280;56050;55.558;-4.644;2024-01-15T08:45:38;101372.25;;;1.58;61.93
64853;BME280;56050;55.558;-4.644;2024-01-15T08:48:04;101380.53;;;1.56;61.89
64853;BME280;56050;55.558;-4.644;2024-01-15T08:50:30;101385.53;;;1.58;61.97
64853;BME280;56050;55.558;-4.644;2024-01-15T08:52:57;101377.56;;;1.58;61.78
64853;BME280;56050;55.558;-4.644;2024-01-15T08:55:23;101383.19;;;1.56;61.90
64853;BME280;56050;55.558;-4.644;2024-01-15T08:57:49;101385.06;;;1.56;61.85
64853;BME280;56050;55.558;-4.644;2024-01-15T09:00:14;101383.81;;;1.53;61.88
64853;BME280;56050;55.558;-4.644;2024-01-15T09:02:40;101383.03;;;1.53;61.75
64853;BME280;56050;55.558;-4.644;2024-01-15T09:05:06;101393.16;;;1.51;61.72
64853;BME280;56050;55.558;-4.644;2024-01-15T09:07:32;101397.22;;;1.48;61.74
64853;BME280;56050;55.558;-4.644;2024-01-15T09:09:57;101403.31;;;1.49;61.64
64853;BME280;56050;55.558;-4.644;2024-01-15T09:12:27;101402.81;;;1.47;61.65
64853;BME280;56050;55.558;-4.644;2024-01-15T09:14:53;101402.06;;;1.46;61.69
64853;BME280;56050;55.558;-4.644;2024-01-15T09:17:19;101407.66;;;1.45;61.85
64853;BME280;56050;55.558;-4.644;2024-01-15T09:19:45;101407.06;;;1.48;61.68
64853;BME280;56050;55.558;-4.644;2024-01-15T09:22:12;101397.06;;;1.45;61.78
64853;BME280;56050;55.558;-4.644;2024-01-15T09:24:40;101397.84;;;1.45;61.61
64853;BME280;56050;55.558;-4.644;2024-01-15T09:27:06;101401.28;;;1.46;61.52
64853;BME280;56050;55.558;-4.644;2024-01-15T09:29:32;101400.50;;;1.45;61.64
64853;BME280;56050;55.558;-4.644;2024-01-15T09:31:57;101407.06;;;1.48;61.69
64853;BME280;56050;55.558;-4.644;2024-01-15T09:34:23;101401.28;;;1.46;61.81
64853;BME280;56050;55.558;-4.644;2024-01-15T09:36:49;101400.19;;;1.47;61.64
64853;BME280;56050;55.558;-4.644;2024-01-15T09:39:14;101404.09;;;1.49;61.69
64853;BME280;56050;55.558;-4.644;2024-01-15T09:41:41;101409.56;;;1.53;61.86
64853;BME280;56050;55.558;-4.644;2024-01-15T09:44:07;101414.72;;;1.58;61.75
64853;BME280;56050;55.558;-4.644;2024-01-15T09:46:34;101423.66;;;1.62;61.65
64853;BME280;56050;55.558;-4.644;2024-01-15T09:49:00;101425.88;;;1.68;61.66
64853;BME280;56050;55.558;-4.644;2024-01-15T09:51:29;101436.34;;;1.73;61.53
64853;BME280;56050;55.558;-4.644;2024-01-15T09:53:57;101426.66;;;1.77;61.43
64853;BME280;56050;55.558;-4.644;2024-01-15T09:56:23;101423.09;;;1.82;61.37
64853;BME280;56050;55.558;-4.644;2024-01-15T09:58:48;101428.25;;;1.87;61.55
64853;BME280;56050;55.558;-4.644;2024-01-15T10:01:16;101427.63;;;1.90;61.40
64853;BME280;56050;55.558;-4.644;2024-01-15T10:03:42;101429.66;;;1.93;61.28
64853;BME280;56050;55.558;-4.644;2024-01-15T10:06:08;101433.56;;;1.96;61.29
64853;BME280;56050;55.558;-4.644;2024-01-15T10:08:36;101419.69;;;1.99;61.43
64853;BME280;56050;55.558;-4.644;2024-01-15T10:11:02;101427.50;;;2.04;61.36
64853;BME280;56050;55.558;-4.644;2024-01-15T10:13:30;101421.84;;;2.05;61.20
64853;BME280;56050;55.558;-4.644;2024-01-15T10:15:55;101429.53;;;2.07;61.38
64853;BME280;56050;55.558;-4.644;2024-01-15T10:18:21;101420.94;;;2.10;61.25
64853;BME280;56050;55.558;-4.644;2024-01-15T10:20:47;101430.16;;;2.12;61.42
64853;BME280;56050;55.558;-4.644;2024-01-15T10:23:14;101437.50;;;2.15;61.32
64853;BME280;56050;55.558;-4.644;2024-01-15T10:25:41;101429.38;;;2.20;61.25
64853;BME280;56050;55.558;-4.644;2024-01-15T10:28:07;101435.47;;;2.21;61.33
64853;BME280;56050;55.558;-4.644;2024-01-15T10:30:33;101440.16;;;2.24;61.19
64853;BME280;56050;55.558;-4.644;2024-01-15T10:33:00;101448.28;;;2.27;61.05
64853;BME280;56050;55.558;-4.644;2024-01-15T10:35:33;101438.91;;;2.30;61.19
64853;BME280;56050;55.558;-4.644;2024-01-15T10:38:00;101449.72;;;2.33;61.18
64853;BME280;56050;55.558;-4.644;2024-01-15T10:40:26;101439.53;;;2.35;61.25
64853;BME280;56050;55.558;-4.644;2024-01-15T10:42:51;101449.53;;;2.38;61.21
64853;BME280;56050;55.558;-4.644;2024-01-15T10:45:17;101435.63;;;2.42;61.16
64853;BME280;56050;55.558;-4.644;2024-01-15T10:47:43;101438.75;;;2.44;61.13
64853;BME280;56050;55.558;-4.644;2024-01-15T10:50:09;101440.31;;;2.45;61.13
64853;BME280;56050;55.558;-4.644;2024-01-15T10:52:36;101435.78;;;2.45;61.11
64853;BME280;56050;55.558;-4.644;2024-01-15T10:55:03;101430.94;;;2.47;60.94
64853;BME280;56050;55.558;-4.644;2024-01-15T10:57:30;101440.16;;;2.50;60.97
64853;BME280;56050;55.558;-4.644;2024-01-15T10:59:56;101444.06;;;2.52;61.03
64853;BME280;56050;55.558;-4.644;2024-01-15T11:02:21;101443.44;;;2.55;61.02
64853;BME280;56050;55.558;-4.644;2024-01-15T11:04:48;101440.94;;;2.59;61.24
64853;BME280;56050;55.558;-4.644;2024-01-15T11:07:14;101450.47;;;2.60;61.32
64853;BME280;56050;55.558;-4.644;2024-01-15T11:09:39;101441.09;;;2.62;61.11
64853;BME280;56050;55.558;-4.644;2024-01-15T11:12:12;101436.69;;;2.66;60.91
64853;BME280;56050;55.558;-4.644;2024-01-15T11:14:39;101438.72;;;2.69;60.80
64853;BME280;56050;55.558;-4.644;2024-01-15T11:17:05;101443.88;;;2.74;60.73
64853;BME280;56050;55.558;-4.644;2024-01-15T11:22:10;101443.88;;;2.83;60.44
64853;BME280;56050;55.558;-4.644;2024-01-15T11:24:40;101439.50;;;2.87;60.40
64853;BME280;56050;55.558;-4.644;2024-01-15T11:27:09;101440.75;;;2.89;60.30
64853;BME280;56050;55.558;-4.644;2024-01-15T11:29:36;101450.75;;;2.92;59.95
64853;BME280;56050;55.558;-4.644;2024-01-15T11:37:23;101440.84;;;3.02;58.32
64853;BME280;56050;55.558;-4.644;2024-01-15T11:39:51;101445.88;;;3.03;57.81
64853;BME280;56050;55.558;-4.644;2024-01-15T11:42:16;101449.00;;;3.05;57.83
64853;BME280;56050;55.558;-4.644;2024-01-15T11:44:44;101441.47;;;3.07;57.85
64853;BME280;56050;55.558;-4.644;2024-01-15T11:47:11;101435.84;;;3.09;57.90
64853;BME280;56050;55.558;-4.644;2024-01-15T11:49:59;101438.63;;;3.12;57.35
64853;BME280;56050;55.558;-4.644;2024-01-15T11:52:35;101438.78;;;3.16;57.27
64853;BME280;56050;55.558;-4.644;2024-01-15T11:55:15;101437.34;;;3.18;56.62
64853;BME280;56050;55.558;-4.644;2024-01-15T11:57:50;101437.34;;;3.18;56.47
64853;BME280;56050;55.558;-4.644;2024-01-15T12:00:18;101425.91;;;3.18;55.62
64853;BME280;56050;55.558;-4.644;2024-01-15T12:02:45;101428.28;;;3.19;55.68
64853;BME280;56050;55.558;-4.644;2024-01-15T12:05:13;101424.66;;;3.24;55.87
64853;BME280;56050;55.558;-4.644;2024-01-15T12:07:39;101419.47;;;3.27;55.62
64853;BME280;56050;55.558;-4.644;2024-01-15T12:10:13;101416.19;;;3.30;55.66
64853;BME280;56050;55.558;-4.644;2024-01-15T12:12:58;101423.53;;;3.33;56.24
64853;BME280;56050;55.558;-4.644;2024-01-15T12:15:28;101420.69;;;3.38;56.14
64853;BME280;56050;55.558;-4.644;2024-01-15T12:17:59;101421.63;;;3.42;56.18
64853;BME280;56050;55.558;-4.644;2024-01-15T12:20:25;101419.06;;;3.46;56.48
64853;BME280;56050;55.558;-4.644;2024-01-15T12:22:51;101421.88;;;3.49;56.36
64853;BME280;56050;55.558;-4.644;2024-01-15T12:25:17;101423.91;;;3.52;56.26
64853;BME280;56050;55.558;-4.644;2024-01-15T12:27:42;101427.47;;;3.56;55.66
64853;BME280;56050;55.558;-4.644;2024-01-15T12:30:11;101429.84;;;3.58;55.55
64853;BME280;56050;55.558;-4.644;2024-01-15T12:32:37;101430.28;;;3.60;55.58
64853;BME280;56050;55.558;-4.644;2024-01-15T12:35:03;101431.53;;;3.63;54.91
64853;BME280;56050;55.558;-4.644;2024-01-15T12:37:29;101427.00;;;3.63;54.72
64853;BME280;56050;55.558;-4.644;2024-01-15T12:39:55;101428.56;;;3.64;54.69
64853;BME280;56050;55.558;-4.644;2024-01-15T12:42:21;101428.22;;;3.66;55.04
64853;BME280;56050;55.558;-4.644;2024-01-15T12:44:47;101427.59;;;3.69;55.29
64853;BME280;56050;55.558;-4.644;2024-01-15T12:47:13;101415.84;;;3.70;55.08
64853;BME280;56050;55.558;-4.644;2024-01-15T12:49:42;101413.94;;;3.70;54.78
64853;BME280;56050;55.558;-4.644;2024-01-15T12:52:10;101420.03;;;3.71;54.97